Terminal Aerodrome Forecast
Issued by NWS

Home | Current Version | Previous Version | Text Only | Print | Product List | Glossary On
Versions: 1 2 3 4 5 6 7 8 9 10 11 12 13 14 15
000
FTUS41 KCAR 260829 AAA
TAFFVE
TAF AMD
KFVE 260829Z 2608/2706 14007KT 1/2SM FG VV002
     FM261100 24006KT P6SM OVC010
     FM261500 28006KT P6SM VCSH BKN040
     FM261800 28006KT P6SM VCTS BKN040CB
     FM262200 28006KT P6SM BKN050=

USA.gov is the U.S. government's official web portal to all federal, state and local government web resources and services.